Time;durP1;ratioP1;P1;durP2;ratioP2;P2;SDS_P1;SDS_P2;PMS_P1;PMS_P2;Temp;Humidity;BMP_temperature;BMP_pressure;BME280_temperature;BME280_humidity;BME280_pressure;Samples;Min_cycle;Max_cycle;Signal;HPM_P1;HPM_P2
2022/09/08 00:00:10;;;;;;;8.02;1.60;;;;;;;;;;5112733;28;20024;-82
2022/09/08 00:02:36;;;;;;;4.90;1.63;;;;;;;;;;5094407;28;20102;-82
2022/09/08 00:05:04;;;;;;;7.50;1.80;;;;;;;;;;5112747;28;20027;-82
2022/09/08 00:07:32;;;;;;;6.18;1.77;;;;;;;;;;5112781;28;20148;-82
2022/09/08 00:09:58;;;;;;;7.95;1.70;;;;;;;;;;5112678;28;20020;-82
2022/09/08 00:12:24;;;;;;;4.70;1.73;;;;;;;;;;5094118;28;20116;-82
2022/09/08 00:14:51;;;;;;;3.28;1.65;;;;;;;;;;5112614;28;20020;-82
2022/09/08 00:17:18;;;;;;;7.45;1.95;;;;;;;;;;5112506;28;20055;-82
2022/09/08 00:19:44;;;;;;;7.07;2.00;;;;;;;;;;5112312;28;20020;-82
2022/09/08 00:22:10;;;;;;;9.20;2.10;;;;;;;;;;5112747;28;20039;-82
2022/09/08 00:24:36;;;;;;;9.18;1.77;;;;;;;;;;5112656;28;20111;-81
2022/09/08 00:27:03;;;;;;;6.63;2.20;;;;;;;;;;5112449;28;20027;-82
2022/09/08 00:29:29;;;;;;;5.57;1.50;;;;;;;;;;5112336;28;20377;-81
2022/09/08 00:31:55;;;;;;;7.22;1.58;;;;;;;;;;5112519;28;20034;-82
2022/09/08 00:34:21;;;;;;;9.05;2.13;;;;;;;;;;5112477;28;20026;-82
2022/09/08 00:36:47;;;;;;;4.70;2.10;;;;;;;;;;5113803;28;20024;-82
2022/09/08 00:39:14;;;;;;;4.05;1.50;;;;;;;;;;5116251;28;20042;-82
2022/09/08 00:41:41;;;;;;;5.25;1.60;;;;;;;;;;5116525;28;20473;-82
2022/09/08 00:44:25;;;;;;;6.70;2.33;;;;;;;;;;5116422;28;20098;-82
2022/09/08 00:46:53;;;;;;;6.13;2.03;;;;;;;;;;5116311;28;20023;-82
2022/09/08 00:49:21;;;;;;;7.75;2.17;;;;;;;;;;5116318;28;20080;-81
2022/09/08 00:51:49;;;;;;;6.57;2.20;;;;;;;;;;5116665;28;20030;-81
2022/09/08 00:54:16;;;;;;;7.45;2.20;;;;;;;;;;5116378;28;20028;-82
2022/09/08 00:56:43;;;;;;;10.05;2.50;;;;;;;;;;5115909;28;20099;-81
2022/09/08 00:59:09;;;;;;;8.30;2.30;;;;;;;;;;5115186;28;20031;-82
2022/09/08 01:01:35;;;;;;;6.13;2.33;;;;;;;;;;5094498;28;20099;-82
2022/09/08 01:04:04;;;;;;;5.90;2.55;;;;;;;;;;5094610;28;20024;-82
2022/09/08 01:15:03;;;;;;;17.48;3.50;;;;;;;;;;5094424;28;20256;-81
2022/09/08 01:17:30;;;;;;;10.52;3.30;;;;;;;;;;5094354;28;20548;-81
2022/09/08 01:19:58;;;;;;;11.05;3.72;;;;;;;;;;5094380;28;20438;-81
2022/09/08 01:22:43;;;;;;;8.70;3.78;;;;;;;;;;5094497;28;20020;-80
2022/09/08 01:25:22;;;;;;;10.65;4.07;;;;;;;;;;5094317;28;20027;-80
2022/09/08 01:27:49;;;;;;;13.02;4.22;;;;;;;;;;5094412;28;20016;-80
2022/09/08 01:30:15;;;;;;;10.20;4.15;;;;;;;;;;5093763;28;20027;-80
2022/09/08 01:32:42;;;;;;;14.02;4.72;;;;;;;;;;5093986;28;20020;-79
2022/09/08 01:35:08;;;;;;;12.43;4.72;;;;;;;;;;5094002;28;20358;-80
2022/09/08 01:37:34;;;;;;;13.93;4.50;;;;;;;;;;5093946;28;20024;-80
2022/09/08 01:40:02;;;;;;;9.65;4.13;;;;;;;;;;5093968;28;20068;-80
2022/09/08 01:42:28;;;;;;;11.82;4.35;;;;;;;;;;5075611;28;20043;-80
2022/09/08 01:44:54;;;;;;;11.85;4.30;;;;;;;;;;5093982;28;20020;-80
2022/09/08 01:47:20;;;;;;;11.02;4.20;;;;;;;;;;5094247;28;20573;-80
2022/09/08 01:49:46;;;;;;;8.55;3.58;;;;;;;;;;5093188;28;20101;-80
2022/09/08 01:52:12;;;;;;;10.50;4.05;;;;;;;;;;5094241;28;20024;-80
2022/09/08 01:54:38;;;;;;;10.15;3.60;;;;;;;;;;5093633;28;20029;-80
2022/09/08 01:57:04;;;;;;;7.93;3.70;;;;;;;;;;5093614;28;20021;-80
2022/09/08 01:59:30;;;;;;;14.27;4.93;;;;;;;;;;5093969;28;20027;-80
2022/09/08 02:01:57;;;;;;;17.30;5.57;;;;;;;;;;5094294;28;20016;-80
2022/09/08 02:04:23;;;;;;;9.32;3.83;;;;;;;;;;5075953;28;20054;-80
2022/09/08 02:06:49;;;;;;;14.30;4.45;;;;;;;;;;5094451;28;20360;-80
2022/09/08 02:09:15;;;;;;;12.98;4.00;;;;;;;;;;5076043;28;20061;-79
2022/09/08 02:11:41;;;;;;;14.73;4.50;;;;;;;;;;5093950;28;20140;-79
2022/09/08 02:14:07;;;;;;;15.10;4.60;;;;;;;;;;5094100;28;20085;-79
2022/09/08 02:16:33;;;;;;;12.32;4.70;;;;;;;;;;5093556;28;20028;-79
2022/09/08 02:18:59;;;;;;;11.75;4.53;;;;;;;;;;5093645;28;20028;-79
2022/09/08 02:21:27;;;;;;;14.48;4.65;;;;;;;;;;5093730;28;20024;-79
2022/09/08 02:23:54;;;;;;;13.75;5.20;;;;;;;;;;5093863;28;20405;-79
2022/09/08 02:26:22;;;;;;;14.38;4.95;;;;;;;;;;5093631;28;20024;-79
2022/09/08 02:28:48;;;;;;;10.27;4.40;;;;;;;;;;5093620;28;20074;-79
2022/09/08 02:31:14;;;;;;;19.08;5.13;;;;;;;;;;5093384;28;20036;-79
2022/09/08 02:33:40;;;;;;;11.68;5.20;;;;;;;;;;5093146;28;20039;-79
2022/09/08 02:36:07;;;;;;;14.85;6.35;;;;;;;;;;5093227;28;20020;-79
2022/09/08 02:38:33;;;;;;;11.65;5.07;;;;;;;;;;5092163;28;20024;-78
2022/09/08 02:41:00;;;;;;;13.63;5.45;;;;;;;;;;5092717;28;20027;-78
2022/09/08 02:43:27;;;;;;;13.88;5.15;;;;;;;;;;5092958;28;20027;-78
2022/09/08 02:45:53;;;;;;;13.85;5.47;;;;;;;;;;5092798;28;20031;-78
2022/09/08 02:48:19;;;;;;;16.83;6.13;;;;;;;;;;5092671;28;20023;-79
2022/09/08 02:50:45;;;;;;;16.85;7.07;;;;;;;;;;5092865;28;20034;-79
2022/09/08 02:53:11;;;;;;;13.50;5.60;;;;;;;;;;5074418;28;20085;-78
2022/09/08 02:55:38;;;;;;;19.05;5.88;;;;;;;;;;5092509;28;20020;-79
2022/09/08 02:58:05;;;;;;;12.02;5.78;;;;;;;;;;5092376;28;20013;-78
2022/09/08 03:00:32;;;;;;;16.15;6.72;;;;;;;;;;5091096;28;20016;-79
2022/09/08 03:02:58;;;;;;;13.90;6.38;;;;;;;;;;5092392;28;20544;-78
2022/09/08 03:05:24;;;;;;;14.40;6.80;;;;;;;;;;5092501;28;20462;-79
2022/09/08 03:07:51;;;;;;;11.27;5.90;;;;;;;;;;5098555;28;20107;-78
2022/09/08 03:10:23;;;;;;;12.70;6.55;;;;;;;;;;5112666;28;20031;-79
2022/09/08 03:12:53;;;;;;;16.27;6.07;;;;;;;;;;5112758;28;20093;-79
2022/09/08 03:15:19;;;;;;;14.73;7.68;;;;;;;;;;5112452;28;20056;-79
2022/09/08 03:17:45;;;;;;;15.32;6.00;;;;;;;;;;5112463;28;20016;-78
2022/09/08 03:20:11;;;;;;;15.68;7.05;;;;;;;;;;5112411;28;20453;-78
2022/09/08 03:22:38;;;;;;;12.77;6.47;;;;;;;;;;5112818;28;20422;-79
2022/09/08 03:25:04;;;;;;;11.93;6.15;;;;;;;;;;5112336;28;20098;-79
2022/09/08 03:27:30;;;;;;;15.38;5.95;;;;;;;;;;5109384;28;20030;-79
2022/09/08 03:29:56;;;;;;;13.68;6.13;;;;;;;;;;5091784;28;20081;-79
2022/09/08 03:32:22;;;;;;;16.70;7.57;;;;;;;;;;5092083;28;20028;-79
2022/09/08 03:34:49;;;;;;;12.57;6.55;;;;;;;;;;5092074;28;20036;-79
2022/09/08 03:37:15;;;;;;;17.23;7.35;;;;;;;;;;5092005;28;20134;-79
2022/09/08 03:39:41;;;;;;;16.23;7.82;;;;;;;;;;5091883;28;20142;-79
2022/09/08 03:42:07;;;;;;;19.23;6.88;;;;;;;;;;5091925;28;20028;-79
2022/09/08 03:44:33;;;;;;;15.95;6.38;;;;;;;;;;5091600;28;20069;-79
2022/09/08 03:47:00;;;;;;;13.82;6.07;;;;;;;;;;5091356;28;20065;-79
2022/09/08 03:49:26;;;;;;;13.00;6.03;;;;;;;;;;5091259;28;20076;-79
2022/09/08 03:51:52;;;;;;;14.65;6.10;;;;;;;;;;5091305;28;20130;-79
2022/09/08 03:57:03;;;;;;;20.38;7.25;;;;;;;;;;5091368;28;20035;-79
2022/09/08 03:59:29;;;;;;;11.65;6.50;;;;;;;;;;5090982;28;20046;-79
2022/09/08 04:01:56;;;;;;;21.42;7.85;;;;;;;;;;5091511;28;20059;-79
2022/09/08 04:04:23;;;;;;;17.30;6.28;;;;;;;;;;5091131;28;20528;-78
2022/09/08 04:06:49;;;;;;;19.33;6.95;;;;;;;;;;5073113;28;20073;-79
2022/09/08 04:09:15;;;;;;;20.10;7.07;;;;;;;;;;5107347;28;20120;-79
2022/09/08 04:11:41;;;;;;;24.15;7.90;;;;;;;;;;5111120;28;20047;-79
2022/09/08 04:14:07;;;;;;;13.88;7.75;;;;;;;;;;5111874;28;20046;-78
2022/09/08 04:16:33;;;;;;;16.15;7.55;;;;;;;;;;5110281;28;20020;-78
2022/09/08 04:18:59;;;;;;;14.55;7.20;;;;;;;;;;5091344;28;20073;-78
2022/09/08 04:21:26;;;;;;;20.00;6.68;;;;;;;;;;5091428;28;20024;-78
2022/09/08 04:23:52;;;;;;;11.18;5.63;;;;;;;;;;5091115;28;20520;-78
2022/09/08 04:26:18;;;;;;;9.80;4.72;;;;;;;;;;5091188;28;20016;-79
2022/09/08 04:28:44;;;;;;;10.30;4.50;;;;;;;;;;5091262;28;20020;-79
2022/09/08 04:31:13;;;;;;;15.48;4.18;;;;;;;;;;5091435;28;20024;-78
2022/09/08 04:33:39;;;;;;;9.20;3.28;;;;;;;;;;5091398;28;20102;-78
2022/09/08 04:36:09;;;;;;;14.35;4.13;;;;;;;;;;5090905;28;20047;-80
2022/09/08 04:38:35;;;;;;;10.70;3.50;;;;;;;;;;5090748;28;20380;-79
2022/09/08 04:41:05;;;;;;;18.23;3.60;;;;;;;;;;5072998;28;20020;-79
2022/09/08 04:43:31;;;;;;;10.00;3.75;;;;;;;;;;5091073;28;20058;-79
2022/09/08 04:46:02;;;;;;;8.57;3.72;;;;;;;;;;5090919;28;20027;-79
2022/09/08 04:48:29;;;;;;;9.43;3.85;;;;;;;;;;5091136;28;20029;-79
2022/09/08 04:50:55;;;;;;;13.57;4.28;;;;;;;;;;5091009;28;20063;-79
2022/09/08 04:53:22;;;;;;;14.07;4.75;;;;;;;;;;5091104;28;20021;-79
2022/09/08 04:55:48;;;;;;;12.40;4.40;;;;;;;;;;5105713;28;20048;-79
2022/09/08 04:58:14;;;;;;;11.48;5.07;;;;;;;;;;5110961;28;20027;-79
2022/09/08 05:00:40;;;;;;;16.42;5.30;;;;;;;;;;5111087;28;20491;-79
2022/09/08 05:03:06;;;;;;;13.27;5.07;;;;;;;;;;5111199;28;20350;-79
2022/09/08 05:05:35;;;;;;;13.43;5.72;;;;;;;;;;5111051;28;20031;-79
2022/09/08 05:08:01;;;;;;;10.65;5.57;;;;;;;;;;5110834;28;20027;-79
2022/09/08 05:10:27;;;;;;;16.05;6.18;;;;;;;;;;5111245;28;20028;-79
2022/09/08 05:12:54;;;;;;;15.13;6.10;;;;;;;;;;5110734;28;20123;-79
2022/09/08 05:15:22;;;;;;;18.50;8.25;;;;;;;;;;5111161;28;20048;-79
2022/09/08 05:17:48;;;;;;;12.85;8.27;;;;;;;;;;5111283;28;20016;-79
2022/09/08 05:20:14;;;;;;;21.63;8.95;;;;;;;;;;5110933;28;20773;-79
2022/09/08 05:22:41;;;;;;;20.33;8.00;;;;;;;;;;5111101;28;20028;-79
2022/09/08 05:25:07;;;;;;;17.48;8.35;;;;;;;;;;5114114;28;20019;-79
2022/09/08 05:27:33;;;;;;;17.25;8.75;;;;;;;;;;5111518;28;20103;-79
2022/09/08 05:29:59;;;;;;;15.32;7.72;;;;;;;;;;5094531;28;20040;-79
2022/09/08 05:32:25;;;;;;;17.67;8.00;;;;;;;;;;5094357;28;20032;-79
2022/09/08 05:34:51;;;;;;;15.77;8.95;;;;;;;;;;5075832;28;20028;-79
2022/09/08 05:37:17;;;;;;;22.60;9.68;;;;;;;;;;5094212;28;20111;-79
2022/09/08 05:39:43;;;;;;;17.27;8.32;;;;;;;;;;5093950;28;20050;-79
2022/09/08 05:42:09;;;;;;;22.23;8.73;;;;;;;;;;5094061;28;20016;-79
2022/09/08 05:44:35;;;;;;;21.15;9.30;;;;;;;;;;5093973;28;20070;-79
2022/09/08 05:47:01;;;;;;;18.73;9.07;;;;;;;;;;5093887;28;20450;-79
2022/09/08 05:49:27;;;;;;;17.00;9.07;;;;;;;;;;5094072;28;20032;-79
2022/09/08 05:51:53;;;;;;;20.70;9.23;;;;;;;;;;5093856;28;20021;-79
2022/09/08 05:54:20;;;;;;;18.33;9.52;;;;;;;;;;5093761;28;20040;-79
2022/09/08 05:56:46;;;;;;;13.98;7.97;;;;;;;;;;5093735;28;20047;-79
2022/09/08 05:59:12;;;;;;;23.67;10.15;;;;;;;;;;5093250;28;20461;-79
2022/09/08 06:01:38;;;;;;;24.35;9.18;;;;;;;;;;5093945;28;20386;-79
2022/09/08 06:04:04;;;;;;;23.50;9.95;;;;;;;;;;5093668;28;20113;-79
2022/09/08 06:06:32;;;;;;;19.63;9.60;;;;;;;;;;5093846;28;20043;-79
2022/09/08 06:08:59;;;;;;;17.50;8.52;;;;;;;;;;5103265;28;20416;-79
2022/09/08 06:11:26;;;;;;;16.23;8.07;;;;;;;;;;5113808;28;20084;-79
2022/09/08 06:13:52;;;;;;;17.98;9.20;;;;;;;;;;5114074;28;20528;-79
2022/09/08 06:16:19;;;;;;;17.00;9.02;;;;;;;;;;5113774;28;20495;-79
2022/09/08 06:18:46;;;;;;;17.40;9.15;;;;;;;;;;5113286;28;20030;-79
2022/09/08 06:21:13;;;;;;;21.77;10.50;;;;;;;;;;5113906;28;20020;-79
2022/09/08 06:23:39;;;;;;;24.58;10.32;;;;;;;;;;5113506;28;20020;-79
2022/09/08 06:26:27;;;;;;;20.27;9.20;;;;;;;;;;5113728;28;20468;-79
2022/09/08 06:29:04;;;;;;;21.52;9.57;;;;;;;;;;5113628;28;20478;-79
2022/09/08 06:31:32;;;;;;;21.88;10.63;;;;;;;;;;5113395;28;20024;-79
2022/09/08 06:34:02;;;;;;;18.40;10.32;;;;;;;;;;5113359;28;20031;-79
2022/09/08 06:36:33;;;;;;;21.15;10.73;;;;;;;;;;5113362;28;20028;-79
2022/09/08 06:39:06;;;;;;;27.80;11.07;;;;;;;;;;5113326;28;20028;-79
2022/09/08 06:41:38;;;;;;;17.55;9.65;;;;;;;;;;5113597;28;20476;-79
2022/09/08 06:44:05;;;;;;;25.00;10.35;;;;;;;;;;5113237;28;20052;-79
2022/09/08 06:46:33;;;;;;;18.35;9.82;;;;;;;;;;5113281;28;20015;-79
2022/09/08 06:48:59;;;;;;;26.83;12.65;;;;;;;;;;5094517;28;20019;-79
2022/09/08 06:51:25;;;;;;;18.73;10.18;;;;;;;;;;5113294;28;20125;-79
2022/09/08 06:53:57;;;;;;;19.48;10.98;;;;;;;;;;5113085;28;20102;-79
2022/09/08 06:56:42;;;;;;;21.98;11.13;;;;;;;;;;5093351;28;20028;-79
2022/09/08 06:59:15;;;;;;;21.33;11.55;;;;;;;;;;5092174;28;20032;-79
2022/09/08 07:01:48;;;;;;;22.50;12.15;;;;;;;;;;5092626;28;20355;-79
2022/09/08 07:04:14;;;;;;;28.75;12.00;;;;;;;;;;5092836;28;20020;-80
2022/09/08 07:06:55;;;;;;;26.20;12.90;;;;;;;;;;5092742;28;20107;-79
2022/09/08 07:09:27;;;;;;;20.75;10.02;;;;;;;;;;5103240;28;20055;-79
2022/09/08 07:12:16;;;;;;;20.45;9.20;;;;;;;;;;5112830;28;20138;-79
2022/09/08 07:14:51;;;;;;;17.75;9.43;;;;;;;;;;5099885;28;20101;-79
2022/09/08 07:17:24;;;;;;;18.55;10.55;;;;;;;;;;5112980;28;20031;-79
2022/09/08 07:19:51;;;;;;;17.48;10.55;;;;;;;;;;5112958;28;20481;-79
2022/09/08 07:22:26;;;;;;;25.00;12.70;;;;;;;;;;5112875;28;20023;-79
2022/09/08 07:24:54;;;;;;;18.42;12.63;;;;;;;;;;5112855;28;20094;-79
2022/09/08 07:27:20;;;;;;;22.27;11.77;;;;;;;;;;5112544;28;20110;-79
2022/09/08 07:29:48;;;;;;;21.98;11.30;;;;;;;;;;5112394;28;20027;-79
2022/09/08 07:32:35;;;;;;;19.48;11.48;;;;;;;;;;5112764;28;20027;-79
2022/09/08 07:35:04;;;;;;;22.40;12.02;;;;;;;;;;5094203;28;20027;-80
2022/09/08 07:37:40;;;;;;;18.15;11.77;;;;;;;;;;5112636;28;20032;-79
2022/09/08 07:40:18;;;;;;;17.30;10.52;;;;;;;;;;5112240;28;20089;-79
2022/09/08 07:42:48;;;;;;;17.92;11.05;;;;;;;;;;5112249;28;20039;-79
2022/09/08 07:45:14;;;;;;;24.90;12.05;;;;;;;;;;5112361;28;20378;-79
2022/09/08 07:47:51;;;;;;;18.83;10.18;;;;;;;;;;5111644;28;20378;-79
2022/09/08 07:50:53;;;;;;;18.30;9.60;;;;;;;;;;5112271;28;20023;-79
2022/09/08 07:53:32;;;;;;;16.05;8.13;;;;;;;;;;5111929;28;20032;-79
2022/09/08 07:56:01;;;;;;;17.88;8.30;;;;;;;;;;5112146;28;20076;-79
2022/09/08 07:58:27;;;;;;;16.65;8.38;;;;;;;;;;5111739;28;20474;-79
2022/09/08 08:01:02;;;;;;;15.27;8.25;;;;;;;;;;5111984;28;20047;-79
2022/09/08 08:03:41;;;;;;;15.38;7.80;;;;;;;;;;5112021;28;20030;-79
2022/09/08 08:06:11;;;;;;;10.82;6.60;;;;;;;;;;5111948;28;20547;-79
2022/09/08 08:08:48;;;;;;;14.52;7.82;;;;;;;;;;5111859;28;20047;-79
2022/09/08 08:11:19;;;;;;;18.23;8.10;;;;;;;;;;5111819;28;20066;-79
2022/09/08 08:13:48;;;;;;;13.90;7.50;;;;;;;;;;5111781;28;20111;-80
2022/09/08 08:16:15;;;;;;;10.65;6.55;;;;;;;;;;5111737;28;20130;-79
2022/09/08 08:18:41;;;;;;;10.65;6.88;;;;;;;;;;5092636;28;20028;-79
2022/09/08 08:21:13;;;;;;;12.60;7.97;;;;;;;;;;5091451;28;20098;-79
2022/09/08 08:23:58;;;;;;;13.75;7.80;;;;;;;;;;5091411;28;20031;-79
2022/09/08 08:26:29;;;;;;;13.40;8.13;;;;;;;;;;5091531;28;20029;-79
2022/09/08 08:29:11;;;;;;;13.68;7.53;;;;;;;;;;5091406;28;20161;-79
2022/09/08 08:31:37;;;;;;;14.65;8.48;;;;;;;;;;5091360;28;20127;-79
2022/09/08 08:34:11;;;;;;;10.70;7.30;;;;;;;;;;5091370;28;20123;-79
2022/09/08 08:36:40;;;;;;;13.80;8.45;;;;;;;;;;5091177;28;20486;-79
2022/09/08 08:39:18;;;;;;;16.85;8.98;;;;;;;;;;5091109;28;20028;-80
2022/09/08 08:41:47;;;;;;;15.50;9.38;;;;;;;;;;5091049;28;20027;-79
2022/09/08 08:44:22;;;;;;;12.13;8.02;;;;;;;;;;5091131;28;20091;-80
2022/09/08 08:46:51;;;;;;;16.58;10.35;;;;;;;;;;5091214;28;20020;-79
2022/09/08 08:49:17;;;;;;;17.52;9.95;;;;;;;;;;5091426;28;20029;-80
2022/09/08 08:51:43;;;;;;;14.50;9.25;;;;;;;;;;5091456;28;20105;-79
2022/09/08 08:54:28;;;;;;;16.60;10.75;;;;;;;;;;5091586;28;20040;-79
2022/09/08 08:57:12;;;;;;;28.50;12.15;;;;;;;;;;5111433;28;20027;-79
2022/09/08 08:59:58;;;;;;;13.68;10.20;;;;;;;;;;5114841;28;20186;-79
2022/09/08 09:02:24;;;;;;;15.52;9.55;;;;;;;;;;5115402;28;20122;-79
2022/09/08 09:05:09;;;;;;;15.63;9.95;;;;;;;;;;5115390;28;20024;-79
2022/09/08 09:07:46;;;;;;;21.10;10.05;;;;;;;;;;5115098;28;20023;-79
2022/09/08 09:10:18;;;;;;;13.38;8.23;;;;;;;;;;5115125;28;20144;-79
2022/09/08 09:12:44;;;;;;;14.07;8.30;;;;;;;;;;5115059;28;20079;-79
2022/09/08 09:15:25;;;;;;;17.67;7.55;;;;;;;;;;5115068;28;20031;-79
2022/09/08 09:18:07;;;;;;;15.05;7.70;;;;;;;;;;5115294;28;20027;-80
2022/09/08 09:20:33;;;;;;;;;;;;;;;;;;5115581;28;20069;-80
2022/09/08 09:23:02;;;;;;;10.73;6.97;;;;;;;;;;5096537;28;20067;-79
2022/09/08 09:25:34;;;;;;;11.80;7.13;;;;;;;;;;5114773;28;20066;-80
2022/09/08 09:28:00;;;;;;;9.52;6.75;;;;;;;;;;5114730;28;20028;-79
2022/09/08 09:30:38;;;;;;;12.20;6.22;;;;;;;;;;5114794;28;20532;-79
2022/09/08 09:33:06;;;;;;;10.57;5.85;;;;;;;;;;5114900;28;20052;-80
2022/09/08 09:35:51;;;;;;;15.15;6.80;;;;;;;;;;5114777;28;20047;-80
2022/09/08 09:38:17;;;;;;;10.10;6.13;;;;;;;;;;5114212;28;20409;-80
2022/09/08 09:41:02;;;;;;;9.75;5.60;;;;;;;;;;5114704;28;20031;-80
2022/09/08 09:43:35;;;;;;;14.95;5.60;;;;;;;;;;5114694;28;20015;-80
2022/09/08 09:46:01;;;;;;;8.57;5.40;;;;;;;;;;5114717;28;20015;-80
2022/09/08 09:48:30;;;;;;;9.80;5.50;;;;;;;;;;5114628;28;20038;-80
2022/09/08 09:51:09;;;;;;;9.45;3.92;;;;;;;;;;5114580;28;20023;-80
2022/09/08 09:53:56;;;;;;;9.80;4.63;;;;;;;;;;5114385;28;20027;-80
2022/09/08 09:56:22;;;;;;;9.00;4.32;;;;;;;;;;5114586;28;20028;-79
2022/09/08 09:58:48;;;;;;;8.43;4.22;;;;;;;;;;5114213;28;20039;-80
2022/09/08 10:01:23;;;;;;;8.27;3.97;;;;;;;;;;5095858;28;20050;-80
2022/09/08 10:04:00;;;;;;;9.38;4.20;;;;;;;;;;5114155;28;20023;-80
2022/09/08 10:06:45;;;;;;;8.20;3.85;;;;;;;;;;5114207;28;20026;-80
2022/09/08 10:09:11;;;;;;;8.20;4.25;;;;;;;;;;5113494;28;20027;-80
2022/09/08 10:11:43;;;;;;;8.73;3.58;;;;;;;;;;5114017;28;20035;-80
2022/09/08 10:14:28;;;;;;;8.82;3.95;;;;;;;;;;5113618;28;20106;-80
2022/09/08 10:16:54;;;;;;;7.53;3.63;;;;;;;;;;5113555;28;20026;-80
2022/09/08 10:19:24;;;;;;;7.88;3.40;;;;;;;;;;5113796;28;20093;-80
2022/09/08 10:21:53;;;;;;;6.50;3.47;;;;;;;;;;5113741;28;20020;-80
2022/09/08 10:24:34;;;;;;;8.55;3.30;;;;;;;;;;5113645;28;20497;-80
2022/09/08 10:27:16;;;;;;;5.35;2.88;;;;;;;;;;5113583;28;20354;-80
2022/09/08 10:29:54;;;;;;;8.82;2.90;;;;;;;;;;5113505;28;20103;-80
2022/09/08 10:32:20;;;;;;;8.25;3.60;;;;;;;;;;5113505;28;20024;-80
2022/09/08 10:34:46;;;;;;;5.43;3.17;;;;;;;;;;5113646;28;20028;-80
2022/09/08 10:37:22;;;;;;;6.05;2.63;;;;;;;;;;5113778;28;20028;-80
2022/09/08 10:40:05;;;;;;;4.75;2.35;;;;;;;;;;5113300;28;20027;-80
2022/09/08 10:42:48;;;;;;;4.38;2.30;;;;;;;;;;5113439;28;20442;-80
2022/09/08 10:45:33;;;;;;;5.20;2.47;;;;;;;;;;5113223;28;20024;-80
2022/09/08 10:47:59;;;;;;;11.25;3.38;;;;;;;;;;5113492;28;20026;-80
2022/09/08 10:50:26;;;;;;;4.82;2.63;;;;;;;;;;5113157;28;20098;-80
2022/09/08 10:52:58;;;;;;;4.50;2.30;;;;;;;;;;5113307;28;20027;-80
2022/09/08 10:55:27;;;;;;;7.45;2.75;;;;;;;;;;5101926;28;20035;-80
2022/09/08 10:58:08;;;;;;;5.38;2.83;;;;;;;;;;5092296;28;20024;-80
2022/09/08 11:00:42;;;;;;;9.48;3.30;;;;;;;;;;5074012;28;20474;-80
2022/09/08 11:03:27;;;;;;;5.32;3.28;;;;;;;;;;5092723;28;20022;-80
2022/09/08 11:06:08;;;;;;;7.10;2.80;;;;;;;;;;5092906;28;20027;-80
2022/09/08 11:08:36;;;;;;;5.57;2.60;;;;;;;;;;5092685;28;20073;-80
2022/09/08 11:11:08;;;;;;;5.72;2.13;;;;;;;;;;5090325;28;20261;-80
2022/09/08 11:13:43;;;;;;;6.97;2.88;;;;;;;;;;5112710;28;20241;-80
2022/09/08 11:16:15;;;;;;;4.97;2.55;;;;;;;;;;5112902;28;20103;-80
2022/09/08 11:18:41;;;;;;;;;;;;;;;;;;5113342;28;20020;-80
2022/09/08 11:21:16;;;;;;;4.82;2.45;;;;;;;;;;5112021;28;19914;-80
2022/09/08 11:24:05;;;;;;;6.95;3.15;;;;;;;;;;5113484;28;20140;-80
2022/09/08 11:26:50;;;;;;;6.05;2.63;;;;;;;;;;5113039;28;20046;-80
2022/09/08 11:29:17;;;;;;;5.43;2.80;;;;;;;;;;5113064;28;20466;-80
2022/09/08 11:32:03;;;;;;;4.85;2.30;;;;;;;;;;5113261;28;20442;-80
2022/09/08 11:34:40;;;;;;;6.68;2.25;;;;;;;;;;5094711;28;20016;-80
2022/09/08 11:37:25;;;;;;;6.28;2.30;;;;;;;;;;5094611;28;20493;-80
2022/09/08 11:40:00;;;;;;;11.27;2.45;;;;;;;;;;5093804;28;20118;-79
2022/09/08 11:42:31;;;;;;;5.63;2.10;;;;;;;;;;5112950;28;20373;-80
2022/09/08 11:45:16;;;;;;;8.13;2.13;;;;;;;;;;5094403;28;20020;-80
2022/09/08 11:47:47;;;;;;;10.80;2.25;;;;;;;;;;5112529;28;20028;-80
2022/09/08 11:50:25;;;;;;;7.63;2.53;;;;;;;;;;5112724;28;20052;-80
2022/09/08 11:53:03;;;;;;;5.60;2.70;;;;;;;;;;5112924;28;20042;-80
2022/09/08 11:55:42;;;;;;;6.15;1.75;;;;;;;;;;5112836;28;20111;-80
2022/09/08 11:58:30;;;;;;;8.20;2.45;;;;;;;;;;5112379;28;20095;-80
2022/09/08 12:00:56;;;;;;;6.90;1.92;;;;;;;;;;5112420;28;20378;-80
2022/09/08 12:03:40;;;;;;;8.30;1.95;;;;;;;;;;5112552;28;20092;-80
2022/09/08 12:06:06;;;;;;;5.53;1.80;;;;;;;;;;5112664;28;20535;-80
2022/09/08 12:08:44;;;;;;;8.25;2.08;;;;;;;;;;5112734;28;20019;-80
2022/09/08 12:11:17;;;;;;;3.85;1.65;;;;;;;;;;5112987;28;20023;-80
2022/09/08 12:13:50;;;;;;;5.80;2.20;;;;;;;;;;5112791;28;20085;-80
2022/09/08 12:16:25;;;;;;;7.57;2.30;;;;;;;;;;5094467;28;20109;-80
2022/09/08 12:18:51;;;;;;;9.15;2.53;;;;;;;;;;5092079;28;20374;-80
2022/09/08 12:21:23;;;;;;;6.20;2.13;;;;;;;;;;5092464;28;20027;-80
2022/09/08 12:23:49;;;;;;;8.93;2.90;;;;;;;;;;5092243;28;20788;-80
2022/09/08 12:26:19;;;;;;;9.25;3.45;;;;;;;;;;5092307;28;20378;-80
2022/09/08 12:28:56;;;;;;;13.30;4.25;;;;;;;;;;5074046;28;20027;-80
2022/09/08 12:31:41;;;;;;;6.57;3.17;;;;;;;;;;5092471;28;20016;-80
2022/09/08 12:34:25;;;;;;;8.18;3.15;;;;;;;;;;5095908;28;20020;-80
2022/09/08 12:36:53;;;;;;;9.40;3.70;;;;;;;;;;5096309;28;20099;-80
2022/09/08 12:39:38;;;;;;;7.78;3.67;;;;;;;;;;5096304;28;20024;-80
2022/09/08 12:42:27;;;;;;;10.23;2.83;;;;;;;;;;5096371;28;20103;-80
2022/09/08 12:45:04;;;;;;;8.98;2.17;;;;;;;;;;5049643;28;20071;-80
2022/09/08 12:47:51;;;;;;;8.77;2.50;;;;;;;;;;5096311;28;20054;-80
2022/09/08 12:50:34;;;;;;;10.07;2.47;;;;;;;;;;5096373;28;20027;-80
2022/09/08 12:53:18;;;;;;;7.15;2.63;;;;;;;;;;5096473;28;20032;-80
2022/09/08 12:56:00;;;;;;;7.70;2.28;;;;;;;;;;5096175;28;20024;-80
2022/09/08 12:58:28;;;;;;;7.70;1.90;;;;;;;;;;5077909;28;20086;-81
2022/09/08 13:00:58;;;;;;;8.35;2.45;;;;;;;;;;5095848;28;20032;-81
2022/09/08 13:03:24;;;;;;;11.50;2.13;;;;;;;;;;5095556;28;20016;-81
2022/09/08 13:06:11;;;;;;;8.50;2.00;;;;;;;;;;5095892;28;20051;-81
2022/09/08 13:08:44;;;;;;;7.45;1.50;;;;;;;;;;5095997;28;20039;-80
2022/09/08 13:11:29;;;;;;;5.95;1.50;;;;;;;;;;5095980;28;20463;-80
2022/09/08 13:13:59;;;;;;;8.05;1.80;;;;;;;;;;5095898;28;20032;-80
2022/09/08 13:16:34;;;;;;;9.85;2.13;;;;;;;;;;5077728;28;20024;-81
2022/09/08 13:19:03;;;;;;;12.43;1.60;;;;;;;;;;5096004;28;20062;-81
2022/09/08 13:21:32;;;;;;;6.85;1.60;;;;;;;;;;5095533;28;20020;-81
2022/09/08 13:24:15;;;;;;;9.00;2.17;;;;;;;;;;5095777;28;20028;-81
2022/09/08 13:26:44;;;;;;;4.55;1.27;;;;;;;;;;5095309;28;20485;-80
2022/09/08 13:29:13;;;;;;;8.13;1.50;;;;;;;;;;5095548;28;20030;-81
2022/09/08 13:31:45;;;;;;;4.55;1.20;;;;;;;;;;5095437;28;20031;-81
2022/09/08 13:34:35;;;;;;;5.90;1.30;;;;;;;;;;5095216;28;20036;-81
2022/09/08 13:37:06;;;;;;;9.73;1.88;;;;;;;;;;5064146;28;20040;-81
2022/09/08 13:39:38;;;;;;;6.97;1.33;;;;;;;;;;5108122;28;20019;-81
2022/09/08 13:42:16;;;;;;;5.88;1.60;;;;;;;;;;5097452;28;20334;-81
2022/09/08 13:44:43;;;;;;;6.45;1.77;;;;;;;;;;5114608;28;20110;-81
2022/09/08 13:47:18;;;;;;;8.35;1.77;;;;;;;;;;5115659;28;20016;-81
2022/09/08 13:49:56;;;;;;;5.60;1.20;;;;;;;;;;5115674;28;20024;-81
2022/09/08 13:52:31;;;;;;;6.53;1.70;;;;;;;;;;5115406;28;20031;-81
2022/09/08 13:54:57;;;;;;;5.78;1.30;;;;;;;;;;5096734;28;20042;-81
2022/09/08 13:57:23;;;;;;;10.63;1.25;;;;;;;;;;5115347;28;20023;-81
2022/09/08 14:00:08;;;;;;;5.60;1.35;;;;;;;;;;5115200;28;20493;-81
2022/09/08 14:02:44;;;;;;;6.13;1.50;;;;;;;;;;5115333;28;20027;-81
2022/09/08 14:05:16;;;;;;;2.92;1.15;;;;;;;;;;5115072;28;20102;-81
2022/09/08 14:07:45;;;;;;;5.40;1.30;;;;;;;;;;5114921;28;20020;-81
2022/09/08 14:10:13;;;;;;;4.85;1.20;;;;;;;;;;5114896;28;20043;-81
2022/09/08 14:12:49;;;;;;;9.85;1.45;;;;;;;;;;5114820;28;20084;-82
2022/09/08 14:15:19;;;;;;;10.10;1.60;;;;;;;;;;5114933;28;20019;-81
2022/09/08 14:17:45;;;;;;;7.93;1.10;;;;;;;;;;5114794;28;20024;-81
2022/09/08 14:20:18;;;;;;;9.00;1.65;;;;;;;;;;5114880;28;20027;-81
2022/09/08 14:23:02;;;;;;;7.07;1.90;;;;;;;;;;5114460;28;20016;-81
2022/09/08 14:25:28;;;;;;;10.73;1.60;;;;;;;;;;5114558;28;20016;-81
2022/09/08 14:27:59;;;;;;;8.05;1.60;;;;;;;;;;5114563;28;20698;-81
2022/09/08 14:30:46;;;;;;;8.02;1.35;;;;;;;;;;5114492;28;20027;-80
2022/09/08 14:33:31;;;;;;;6.22;1.40;;;;;;;;;;5096619;28;20032;-81
2022/09/08 14:35:59;;;;;;;6.03;1.25;;;;;;;;;;5114318;28;20020;-80
2022/09/08 14:38:32;;;;;;;8.07;1.77;;;;;;;;;;5114432;28;20022;-80
2022/09/08 14:41:08;;;;;;;13.88;1.83;;;;;;;;;;5114330;28;20107;-80
2022/09/08 14:43:34;;;;;;;8.40;1.80;;;;;;;;;;5113830;28;20015;-80
2022/09/08 14:46:03;;;;;;;10.35;2.47;;;;;;;;;;5113798;28;20035;-80
2022/09/08 14:48:34;;;;;;;8.05;1.70;;;;;;;;;;5113819;28;20062;-80
2022/09/08 14:51:19;;;;;;;7.90;1.80;;;;;;;;;;5114053;28;20120;-79
2022/09/08 14:53:51;;;;;;;8.88;1.88;;;;;;;;;;5113867;28;20345;-80
2022/09/08 14:56:28;;;;;;;8.32;1.60;;;;;;;;;;5076599;28;20486;-80
2022/09/08 14:58:58;;;;;;;6.78;1.70;;;;;;;;;;5074998;28;20389;-80
2022/09/08 15:01:25;;;;;;;5.90;1.20;;;;;;;;;;5093592;28;20118;-80
2022/09/08 15:03:56;;;;;;;5.75;1.10;;;;;;;;;;5093637;28;20466;-80
2022/09/08 15:06:36;;;;;;;9.53;0.80;;;;;;;;;;5093528;28;20190;-80
2022/09/08 15:09:35;;;;;;;4.57;0.80;;;;;;;;;;5093832;28;20024;-80